createdAt,value
2019-05-09T00:00:09.044Z,9
2019-05-09T00:15:09.195Z,9.1
2019-05-09T00:30:09.641Z,9.1
2019-05-09T00:45:09.753Z,9.1
2019-05-09T01:00:09.791Z,9
2019-05-09T01:15:09.759Z,8.8
2019-05-09T01:30:13.659Z,8.7
2019-05-09T01:45:11.158Z,8.4
2019-05-09T02:00:13.407Z,8.3
2019-05-09T02:15:13.213Z,8.3
2019-05-09T02:30:15.658Z,7.7
2019-05-09T02:45:11.135Z,7.5
2019-05-09T03:00:11.643Z,7.3
2019-05-09T03:15:11.207Z,7
2019-05-09T03:30:02.968Z,6.9
2019-05-09T03:45:03.274Z,6.7
2019-05-09T04:00:03.274Z,6.6
2019-05-09T04:15:04.878Z,6.5
2019-05-09T04:30:05.886Z,6.5
2019-05-09T04:45:12.879Z,6.5
2019-05-09T05:00:03.876Z,6.6
2019-05-09T05:15:03.883Z,6.9
2019-05-09T05:30:07.771Z,7.3
2019-05-09T05:45:08.259Z,7.4
2019-05-09T06:00:12.670Z,7.7
2019-05-09T06:15:12.728Z,7.8
2019-05-09T06:30:12.787Z,8
2019-05-09T06:45:12.811Z,8.4
2019-05-09T07:00:08.566Z,9.8
2019-05-09T07:15:09.034Z,11
2019-05-09T07:30:07.945Z,11.8
2019-05-09T07:45:09.168Z,12.4
2019-05-09T08:00:08.015Z,12.6
2019-05-09T08:15:19.183Z,13.1
2019-05-09T08:30:08.286Z,13.2
2019-05-09T08:45:27.474Z,13.7
2019-05-09T09:00:08.382Z,13.8
2019-05-09T09:15:08.045Z,14.5
2019-05-09T09:30:24.576Z,14.8
2019-05-09T09:45:08.120Z,14.3
2019-05-09T10:00:08.136Z,13.9
2019-05-09T10:15:08.678Z,13.6
2019-05-09T10:30:09.328Z,13.2
2019-05-09T10:45:07.802Z,12.8
2019-05-09T11:00:09.104Z,13.1
2019-05-09T11:15:09.377Z,13.7
2019-05-09T11:30:08.584Z,13.7
2019-05-09T11:45:08.091Z,14.2
2019-05-09T12:00:08.643Z,14.5
2019-05-09T12:15:09.069Z,14.3
2019-05-09T12:30:08.089Z,14.8
2019-05-09T12:45:08.666Z,15.1
2019-05-09T13:00:08.362Z,15.3
2019-05-09T13:15:09.143Z,15.6
2019-05-09T13:30:08.611Z,15.5
2019-05-09T13:45:08.559Z,13.4
2019-05-09T14:00:09.090Z,13
2019-05-09T14:15:08.739Z,13
2019-05-09T14:30:08.447Z,13.3
2019-05-09T14:45:08.683Z,13.5
2019-05-09T15:00:08.839Z,14
2019-05-09T15:15:08.602Z,14.1
2019-05-09T15:30:08.651Z,14.2
2019-05-09T15:45:08.895Z,14.3
2019-05-09T16:00:09.046Z,14.1
2019-05-09T16:15:09.020Z,13.8
2019-05-09T16:30:10.526Z,13.5
2019-05-09T16:45:10.064Z,13.1
2019-05-09T17:00:10.114Z,13
2019-05-09T17:15:10.201Z,13.2
2019-05-09T17:30:10.256Z,12.8
2019-05-09T17:45:10.275Z,12.3
2019-05-09T18:00:10.275Z,12
2019-05-09T18:15:10.311Z,12.1
2019-05-09T18:30:10.423Z,11.9
2019-05-09T18:45:10.386Z,11.5
2019-05-09T19:00:10.431Z,11.4
2019-05-09T19:15:10.504Z,11.1
2019-05-09T19:30:10.583Z,11
2019-05-09T19:45:10.563Z,10.7
2019-05-09T20:00:10.614Z,10.8
2019-05-09T20:15:10.659Z,10.7
2019-05-09T20:30:10.730Z,10.5
2019-05-09T20:45:10.735Z,10.6
2019-05-09T21:00:10.773Z,10.6
2019-05-09T21:15:10.793Z,10.4
2019-05-09T21:30:10.875Z,10.4
2019-05-09T21:45:10.960Z,10.5
2019-05-09T22:00:10.994Z,10.5
2019-05-09T22:15:10.981Z,10.4
2019-05-09T22:30:11.089Z,10.3
2019-05-09T22:45:11.217Z,10.2
2019-05-09T23:00:11.275Z,10.2
2019-05-09T23:15:11.114Z,10.1
2019-05-09T23:30:11.217Z,10
2019-05-09T23:45:11.784Z,10
